Cokedale, Colorado
Current Conditions -  °F | °C
As of 8:54 PM on Wednesday 22 Oct 2014 (Local Time) from KTAD Reporting Station
Overcast Overcast  
Wind Chill: 59°   Ceiling: 9500
Heat Index: 59°   Visibility: 10mi
Dew Point: 40°   Wind: 9mph
Humidity: 49%   Direction: 140°SE
Pressure: 30.15"   Gusts: NA
Location:  37.1661°N, 104.486°W
Report Text: KTAD 230254Z AUTO 14008KT 10SM OVC095 15/04 A3015 RMK AO2 SLP154 T01500044 51014
Loading
Personal Weather Stations






























Interactive Weather Map
Tropical Storm Tracking
New forecast layout! Learn more

10-Day Weather Forecast

Advertisements
Track Severe Weather on mobile